createdAt,value
2023-09-15T00:00:55.281Z,12.13
2023-09-15T00:03:22.471Z,12.06
2023-09-15T00:05:49.608Z,11.99
2023-09-15T00:08:17.877Z,11.93
2023-09-15T00:10:46.284Z,11.84
2023-09-15T00:13:13.716Z,11.81
2023-09-15T00:15:42.640Z,11.74
2023-09-15T00:18:10.782Z,11.72
2023-09-15T00:20:37.978Z,11.71
2023-09-15T00:23:05.780Z,11.69
2023-09-15T00:25:33.693Z,11.71
2023-09-15T00:28:03.340Z,11.75
2023-09-15T00:30:30.549Z,11.72
2023-09-15T00:32:58.761Z,11.68
2023-09-15T00:35:28.826Z,11.64
2023-09-15T00:37:58.585Z,11.59
2023-09-15T00:40:25.898Z,11.54
2023-09-15T00:42:53.196Z,11.51
2023-09-15T00:45:20.995Z,11.48
2023-09-15T00:47:52.103Z,11.46
2023-09-15T00:50:22.446Z,11.40
2023-09-15T00:52:52.440Z,11.38
2023-09-15T00:55:21.182Z,11.36
2023-09-15T00:57:50.722Z,11.37
2023-09-15T01:00:18.833Z,11.36
2023-09-15T01:02:46.217Z,11.44
2023-09-15T01:05:20.987Z,11.47
2023-09-15T01:07:48.657Z,11.44
2023-09-15T01:10:15.924Z,11.39
2023-09-15T01:12:44.848Z,11.33
2023-09-15T01:15:12.147Z,11.33
2023-09-15T01:17:54.397Z,11.33
2023-09-15T01:20:31.557Z,11.42
2023-09-15T01:23:19.216Z,11.46
2023-09-15T01:26:31.351Z,11.41
2023-09-15T01:29:26.302Z,11.32
2023-09-15T01:31:53.400Z,11.27
2023-09-15T01:34:20.456Z,11.28
2023-09-15T01:36:47.801Z,11.32
2023-09-15T01:39:14.932Z,11.32
2023-09-15T01:41:43.074Z,11.31
2023-09-15T01:44:10.014Z,11.34
2023-09-15T01:46:37.463Z,11.32
2023-09-15T01:49:04.665Z,11.35
2023-09-15T01:51:31.924Z,11.36
2023-09-15T01:53:58.908Z,11.32
2023-09-15T01:56:29.999Z,11.28
2023-09-15T01:58:57.112Z,11.16
2023-09-15T02:01:24.562Z,11.13
2023-09-15T02:03:52.050Z,11.15
2023-09-15T02:06:19.132Z,11.23
2023-09-15T02:08:46.870Z,11.24
2023-09-15T02:11:14.175Z,11.34
2023-09-15T02:13:42.281Z,11.33
2023-09-15T02:16:10.142Z,11.25
2023-09-15T02:18:37.497Z,11.24
2023-09-15T02:21:05.074Z,11.13
2023-09-15T02:23:32.308Z,10.96
2023-09-15T02:26:05.536Z,10.81
2023-09-15T02:28:33.148Z,10.68
2023-09-15T02:31:00.270Z,10.51
2023-09-15T02:33:27.488Z,10.48
2023-09-15T02:35:54.549Z,10.46
2023-09-15T02:38:21.719Z,10.40
2023-09-15T02:40:48.858Z,10.33
2023-09-15T02:43:15.990Z,10.38
2023-09-15T02:45:43.409Z,10.40
2023-09-15T02:48:10.638Z,10.31
2023-09-15T02:50:47.142Z,10.33
2023-09-15T02:53:14.876Z,10.18
2023-09-15T02:55:41.902Z,10.10
2023-09-15T02:58:09.678Z,10.08
2023-09-15T03:00:37.164Z,10.16
2023-09-15T03:03:05.218Z,10.23
2023-09-15T03:05:33.299Z,10.33
2023-09-15T03:08:00.830Z,10.45
2023-09-15T03:10:27.813Z,10.49
2023-09-15T03:12:55.171Z,10.54
2023-09-15T03:15:26.501Z,10.60
2023-09-15T03:17:54.229Z,10.61
2023-09-15T03:20:22.384Z,10.61
2023-09-15T03:22:51.882Z,10.62
2023-09-15T03:25:20.128Z,10.69
2023-09-15T03:27:47.361Z,10.82
2023-09-15T03:30:14.466Z,10.88
2023-09-15T03:32:41.589Z,10.89
2023-09-15T03:35:09.464Z,10.94
2023-09-15T03:37:36.658Z,11.03
2023-09-15T03:40:06.292Z,11.06
2023-09-15T03:42:33.879Z,11.03
2023-09-15T03:45:00.938Z,11.08
2023-09-15T03:47:28.190Z,11.19
2023-09-15T03:49:55.324Z,11.32
2023-09-15T03:52:22.404Z,11.39
2023-09-15T03:54:49.482Z,11.32
2023-09-15T03:57:16.533Z,11.30
2023-09-15T03:59:43.506Z,11.30
2023-09-15T04:02:10.686Z,11.25
2023-09-15T04:04:37.660Z,11.29
2023-09-15T04:07:06.753Z,11.29
2023-09-15T04:09:36.218Z,11.34
2023-09-15T04:12:05.192Z,11.35
2023-09-15T04:14:35.659Z,11.37
2023-09-15T04:17:05.837Z,11.36
2023-09-15T04:19:34.021Z,11.30
2023-09-15T04:22:01.306Z,11.25
2023-09-15T04:24:28.652Z,11.20
2023-09-15T04:26:55.813Z,11.19
2023-09-15T04:29:23.031Z,11.12
2023-09-15T04:31:50.272Z,11.11
2023-09-15T04:34:17.303Z,11.15
2023-09-15T04:36:44.301Z,11.21
2023-09-15T04:39:11.726Z,11.18
2023-09-15T04:41:38.813Z,11.28
2023-09-15T04:44:06.130Z,11.34
2023-09-15T04:46:33.381Z,11.46
2023-09-15T04:49:00.896Z,11.61
2023-09-15T04:51:27.966Z,11.65
2023-09-15T04:53:55.141Z,11.85
2023-09-15T04:56:22.563Z,12.00
2023-09-15T04:58:50.441Z,12.23
2023-09-15T05:01:19.005Z,12.44
2023-09-15T05:03:46.556Z,12.68
2023-09-15T05:06:13.965Z,12.88
2023-09-15T05:08:41.161Z,13.09
2023-09-15T05:11:08.528Z,13.36
2023-09-15T05:13:36.067Z,13.59
2023-09-15T05:16:04.496Z,13.80
2023-09-15T05:18:32.317Z,13.98
2023-09-15T05:20:59.320Z,14.17
2023-09-15T05:23:27.150Z,14.35
2023-09-15T05:25:54.827Z,14.49
2023-09-15T05:28:24.664Z,14.71
2023-09-15T05:31:01.108Z,14.96
2023-09-15T05:33:31.862Z,15.07
2023-09-15T05:35:59.035Z,15.12
2023-09-15T05:38:26.185Z,15.16
2023-09-15T05:40:53.261Z,15.21
2023-09-15T05:43:20.838Z,15.24
2023-09-15T05:45:48.342Z,15.31
2023-09-15T05:48:18.998Z,15.33
2023-09-15T05:50:46.118Z,15.39
2023-09-15T05:53:13.223Z,15.40
2023-09-15T05:55:40.234Z,15.39
2023-09-15T05:58:07.358Z,15.38
2023-09-15T06:00:34.382Z,15.40
2023-09-15T06:03:01.510Z,15.45
2023-09-15T06:05:28.867Z,15.54
2023-09-15T06:07:56.120Z,15.61
2023-09-15T06:10:23.294Z,15.61
2023-09-15T06:12:51.058Z,15.61
2023-09-15T06:15:18.620Z,15.71
2023-09-15T06:17:45.696Z,15.83
2023-09-15T06:20:13.197Z,15.98
2023-09-15T06:22:40.333Z,16.13
2023-09-15T06:25:07.783Z,16.27
2023-09-15T06:27:34.883Z,16.47
2023-09-15T06:30:02.288Z,16.69
2023-09-15T06:32:32.150Z,16.87
2023-09-15T06:34:59.260Z,16.99
2023-09-15T06:37:26.351Z,17.01
2023-09-15T06:39:53.505Z,17.10
2023-09-15T06:42:20.598Z,17.17
2023-09-15T06:44:47.630Z,17.36
2023-09-15T06:47:14.845Z,17.53
2023-09-15T06:49:41.843Z,17.80
2023-09-15T06:52:09.047Z,17.97
2023-09-15T06:54:36.187Z,18.11
2023-09-15T06:57:04.010Z,18.23
2023-09-15T06:59:31.903Z,18.41
2023-09-15T07:02:00.561Z,18.51
2023-09-15T07:04:28.036Z,18.60
2023-09-15T07:06:55.432Z,18.71
2023-09-15T07:09:23.468Z,18.79
2023-09-15T07:11:50.548Z,18.94
2023-09-15T07:14:18.372Z,19.11
2023-09-15T07:16:45.572Z,19.23
2023-09-15T07:19:12.916Z,19.40
2023-09-15T07:21:42.273Z,19.59
2023-09-15T07:24:09.888Z,19.69
2023-09-15T07:26:36.892Z,19.83
2023-09-15T07:29:04.867Z,20.02
2023-09-15T07:31:35.120Z,20.21
2023-09-15T07:34:02.967Z,20.29
2023-09-15T07:36:30.171Z,20.32
2023-09-15T07:38:57.229Z,20.53
2023-09-15T07:41:24.328Z,20.73
2023-09-15T07:43:52.894Z,20.92
2023-09-15T07:46:20.350Z,21.11
2023-09-15T07:48:47.376Z,21.24
2023-09-15T07:51:15.349Z,21.41
2023-09-15T07:53:43.148Z,21.56
2023-09-15T07:56:10.352Z,21.74
2023-09-15T07:58:37.648Z,21.92
2023-09-15T08:01:06.194Z,22.07
2023-09-15T08:03:33.256Z,22.00
2023-09-15T08:06:02.591Z,21.93
2023-09-15T08:08:30.154Z,22.03
2023-09-15T08:10:57.086Z,22.16
2023-09-15T08:13:24.362Z,22.23
2023-09-15T08:15:53.240Z,22.20
2023-09-15T08:18:20.413Z,22.16
2023-09-15T08:20:47.424Z,22.27
2023-09-15T08:23:14.560Z,22.38
2023-09-15T08:25:42.354Z,22.47
2023-09-15T08:28:09.590Z,22.38
2023-09-15T08:30:36.953Z,22.41
2023-09-15T08:33:04.231Z,22.45
2023-09-15T08:35:31.321Z,22.62
2023-09-15T08:37:58.578Z,22.74
2023-09-15T08:40:26.361Z,22.81
2023-09-15T08:42:53.526Z,22.95
2023-09-15T08:45:21.320Z,23.12
2023-09-15T08:47:48.799Z,23.30
2023-09-15T08:50:16.069Z,23.40
2023-09-15T08:52:43.101Z,23.33
2023-09-15T08:55:10.287Z,23.25
2023-09-15T08:57:39.022Z,23.20
2023-09-15T09:00:10.294Z,23.08
2023-09-15T09:02:37.519Z,23.18
2023-09-15T09:05:04.968Z,23.38
2023-09-15T09:07:32.287Z,23.47
2023-09-15T09:09:59.391Z,23.66
2023-09-15T09:12:26.446Z,23.73
2023-09-15T09:14:56.594Z,23.77
2023-09-15T09:17:24.123Z,23.82
2023-09-15T09:19:51.171Z,23.90
2023-09-15T09:22:18.990Z,24.00
2023-09-15T09:24:52.983Z,24.09
2023-09-15T09:27:20.019Z,24.28
2023-09-15T09:29:47.070Z,24.19
2023-09-15T09:32:15.222Z,24.20
2023-09-15T09:34:48.124Z,24.31
2023-09-15T09:37:15.878Z,24.49
2023-09-15T09:39:42.938Z,24.49
2023-09-15T09:42:13.039Z,24.57
2023-09-15T09:44:40.224Z,24.57
2023-09-15T09:47:09.171Z,24.67
2023-09-15T09:49:37.219Z,24.73
2023-09-15T09:52:04.930Z,24.89
2023-09-15T09:54:33.038Z,24.94
2023-09-15T09:57:00.262Z,24.95
2023-09-15T09:59:28.123Z,24.83
2023-09-15T10:01:55.212Z,24.63
2023-09-15T10:04:23.396Z,24.45
2023-09-15T10:06:50.680Z,24.51
2023-09-15T10:09:19.549Z,24.48
2023-09-15T10:11:46.741Z,24.51
2023-09-15T10:14:13.895Z,24.56
2023-09-15T10:16:40.926Z,24.66
2023-09-15T10:19:08.155Z,24.83
2023-09-15T10:21:35.731Z,24.78
2023-09-15T10:24:07.421Z,24.74
2023-09-15T10:26:35.266Z,24.74
2023-09-15T10:29:04.932Z,24.73
2023-09-15T10:31:33.734Z,24.81
2023-09-15T10:34:06.250Z,24.71
2023-09-15T10:36:33.751Z,24.78
2023-09-15T10:39:20.675Z,24.96
2023-09-15T10:41:47.750Z,24.95
2023-09-15T10:44:14.919Z,24.92
2023-09-15T10:46:43.668Z,25.02
2023-09-15T10:49:18.364Z,25.01
2023-09-15T10:51:53.491Z,24.93
2023-09-15T10:54:21.036Z,24.81
2023-09-15T10:56:48.962Z,24.84
2023-09-15T10:59:19.368Z,24.82
2023-09-15T11:01:46.511Z,24.85
2023-09-15T11:04:14.708Z,24.74
2023-09-15T11:06:42.012Z,24.55
2023-09-15T11:09:09.552Z,24.27
2023-09-15T11:11:36.697Z,24.29
2023-09-15T11:14:03.670Z,24.35
2023-09-15T11:16:31.914Z,24.40
2023-09-15T11:19:03.146Z,24.35
2023-09-15T11:21:30.297Z,24.15
2023-09-15T11:23:57.981Z,24.20
2023-09-15T11:26:28.643Z,24.24
2023-09-15T11:28:56.131Z,24.20
2023-09-15T11:31:24.425Z,24.04
2023-09-15T11:33:54.103Z,23.89
2023-09-15T11:36:24.676Z,23.89
2023-09-15T11:38:51.961Z,23.93
2023-09-15T11:41:20.802Z,23.97
2023-09-15T11:43:48.336Z,23.88
2023-09-15T11:46:15.496Z,23.73
2023-09-15T11:48:42.688Z,23.62
2023-09-15T11:51:12.644Z,23.53
2023-09-15T11:53:39.760Z,23.43
2023-09-15T11:56:07.000Z,23.30
2023-09-15T11:58:34.235Z,23.12
2023-09-15T12:01:03.083Z,23.11
2023-09-15T12:03:33.599Z,23.02
2023-09-15T12:06:02.957Z,22.93
2023-09-15T12:08:30.325Z,22.80
2023-09-15T12:11:11.667Z,22.71
2023-09-15T12:13:40.442Z,22.55
2023-09-15T12:16:07.982Z,22.43
2023-09-15T12:18:38.583Z,22.33
2023-09-15T12:21:16.164Z,22.30
2023-09-15T12:23:45.225Z,22.30
2023-09-15T12:26:13.255Z,22.33
2023-09-15T12:28:43.112Z,22.29
2023-09-15T12:31:19.567Z,22.27
2023-09-15T12:33:47.227Z,22.20
2023-09-15T12:36:14.626Z,22.15
2023-09-15T12:38:41.741Z,22.08
2023-09-15T12:41:09.509Z,22.03
2023-09-15T12:43:36.709Z,21.97
2023-09-15T12:46:04.651Z,21.89
2023-09-15T12:48:32.057Z,21.85
2023-09-15T12:50:59.464Z,21.78
2023-09-15T12:53:29.131Z,21.82
2023-09-15T12:55:57.798Z,21.78
2023-09-15T14:02:04.809Z,21.46
2023-09-15T14:04:31.846Z,21.27
2023-09-15T14:07:01.654Z,21.05
2023-09-15T14:09:28.835Z,20.89
2023-09-15T14:11:55.954Z,20.82
2023-09-15T14:14:23.043Z,20.72
2023-09-15T14:16:50.123Z,20.63
2023-09-15T14:19:17.225Z,20.54
2023-09-15T14:21:45.791Z,20.45
2023-09-15T14:24:14.390Z,20.42
2023-09-15T14:26:42.729Z,20.38
2023-09-15T14:29:10.017Z,20.34
2023-09-15T14:31:37.347Z,20.30
2023-09-15T14:34:04.449Z,20.24
2023-09-15T14:36:31.691Z,20.18
2023-09-15T14:38:58.840Z,20.09
2023-09-15T14:41:25.887Z,19.94
2023-09-15T14:43:52.871Z,19.85
2023-09-15T14:46:19.846Z,19.77
2023-09-15T14:48:51.358Z,19.68
2023-09-15T14:51:18.833Z,19.64
2023-09-15T14:53:46.102Z,19.63
2023-09-15T14:56:13.152Z,19.58
2023-09-15T14:58:40.288Z,19.51
2023-09-15T15:01:07.644Z,19.40
2023-09-15T15:03:34.865Z,19.31
2023-09-15T15:06:01.920Z,19.25
2023-09-15T15:08:28.986Z,19.19
2023-09-15T15:10:56.424Z,19.11
2023-09-15T15:13:23.482Z,19.02
2023-09-15T15:15:50.760Z,19.03
2023-09-15T15:18:18.958Z,19.01
2023-09-15T15:20:47.880Z,18.96
2023-09-15T15:23:15.324Z,18.85
2023-09-15T15:25:42.509Z,18.80
2023-09-15T15:28:09.642Z,18.75
2023-09-15T15:30:36.885Z,18.64
2023-09-15T15:33:04.375Z,18.48
2023-09-15T15:35:33.486Z,18.34
2023-09-15T15:38:00.580Z,18.31
2023-09-15T15:40:27.622Z,18.21
2023-09-15T15:42:55.582Z,18.09
2023-09-15T15:45:22.702Z,17.94
2023-09-15T15:47:49.874Z,17.78
2023-09-15T15:50:16.992Z,17.62
2023-09-15T15:52:44.468Z,17.47
2023-09-15T15:55:11.405Z,17.37
2023-09-15T15:57:38.457Z,17.30
2023-09-15T16:00:06.091Z,17.19
2023-09-15T16:02:37.411Z,17.08
2023-09-15T16:05:05.035Z,17.03
2023-09-15T16:07:32.179Z,16.98
2023-09-15T16:09:59.456Z,16.91
2023-09-15T16:12:28.750Z,16.83
2023-09-15T16:14:55.862Z,16.75
2023-09-15T16:17:22.943Z,16.70
2023-09-15T16:19:49.983Z,16.62
2023-09-15T16:22:17.701Z,16.55
2023-09-15T16:24:45.939Z,16.44
2023-09-15T16:27:13.068Z,16.38
2023-09-15T16:29:40.027Z,16.29
2023-09-15T16:32:07.073Z,16.29
2023-09-15T16:34:34.496Z,16.30
2023-09-15T16:37:01.573Z,16.24
2023-09-15T16:39:28.801Z,16.15
2023-09-15T16:41:55.897Z,16.12
2023-09-15T16:44:22.989Z,16.10
2023-09-15T16:46:50.075Z,16.03
2023-09-15T16:49:17.038Z,15.95
2023-09-15T16:51:44.193Z,15.93
2023-09-15T16:54:11.352Z,15.86
2023-09-15T16:56:38.419Z,15.86
2023-09-15T16:59:05.541Z,15.94
2023-09-15T17:01:32.523Z,15.99
2023-09-15T17:04:00.271Z,15.99
2023-09-15T17:06:27.501Z,15.96
2023-09-15T17:08:55.218Z,15.92
2023-09-15T17:11:22.305Z,15.89
2023-09-15T17:13:49.387Z,15.84
2023-09-15T17:16:20.253Z,15.80
2023-09-15T17:18:47.794Z,15.75
2023-09-15T17:21:15.397Z,15.69
2023-09-15T17:23:42.621Z,15.62
2023-09-15T17:26:12.718Z,15.53
2023-09-15T17:28:39.886Z,15.46
2023-09-15T17:31:07.037Z,15.34
2023-09-15T17:33:34.188Z,15.26
2023-09-15T17:36:01.320Z,15.16
2023-09-15T17:38:28.383Z,15.14
2023-09-15T17:40:55.448Z,15.13
2023-09-15T17:43:22.559Z,15.15
2023-09-15T17:45:53.540Z,15.24
2023-09-15T17:48:20.779Z,15.28
2023-09-15T17:50:47.792Z,15.30
2023-09-15T17:53:14.875Z,15.30
2023-09-15T17:55:42.026Z,15.26
2023-09-15T17:58:09.051Z,15.16
2023-09-15T18:00:36.086Z,15.12
2023-09-15T18:03:04.700Z,15.13
2023-09-15T18:05:31.967Z,15.08
2023-09-15T18:07:59.768Z,15.01
2023-09-15T18:10:26.898Z,14.96
2023-09-15T18:12:54.199Z,14.95
2023-09-15T18:15:21.417Z,14.91
2023-09-15T18:17:49.513Z,14.91
2023-09-15T18:20:17.213Z,14.94
2023-09-15T18:22:45.890Z,15.00
2023-09-15T18:25:13.274Z,15.07
2023-09-15T18:27:41.111Z,15.11
2023-09-15T18:30:08.711Z,15.11
2023-09-15T18:32:37.468Z,15.11
2023-09-15T18:35:05.443Z,15.09
2023-09-15T18:37:32.916Z,15.12
2023-09-15T18:40:01.714Z,15.10
2023-09-15T18:42:32.770Z,15.05
2023-09-15T18:44:59.998Z,15.02
2023-09-15T18:47:27.148Z,14.97
2023-09-15T18:49:54.289Z,14.92
2023-09-15T18:52:21.274Z,14.90
2023-09-15T18:54:48.533Z,14.92
2023-09-15T18:57:15.909Z,14.97
2023-09-15T18:59:43.190Z,14.99
2023-09-15T19:02:11.712Z,14.94
2023-09-15T19:04:40.105Z,14.92
2023-09-15T19:07:07.314Z,14.88
2023-09-15T19:09:35.597Z,14.83
2023-09-15T19:12:02.785Z,14.82
2023-09-15T19:14:29.852Z,14.79
2023-09-15T19:16:57.129Z,14.73
2023-09-15T19:19:24.224Z,14.65
2023-09-15T19:21:51.372Z,14.62
2023-09-15T19:24:18.527Z,14.53
2023-09-15T19:26:45.788Z,14.44
2023-09-15T19:29:13.134Z,14.36
2023-09-15T19:31:40.673Z,14.28
2023-09-15T19:34:08.099Z,14.25
2023-09-15T19:36:35.233Z,14.23
2023-09-15T19:39:04.896Z,14.16
2023-09-15T19:41:32.456Z,14.13
2023-09-15T19:43:59.644Z,14.07
2023-09-15T19:46:26.756Z,14.04
2023-09-15T19:48:54.088Z,13.99
2023-09-15T19:51:21.706Z,14.01
2023-09-15T19:53:48.788Z,13.98
2023-09-15T19:56:15.774Z,13.93
2023-09-15T19:58:42.808Z,13.87
2023-09-15T20:01:09.859Z,13.86
2023-09-15T20:03:36.926Z,13.86
2023-09-15T20:06:04.264Z,13.84
2023-09-15T20:08:31.351Z,13.80
2023-09-15T20:10:58.617Z,13.76
2023-09-15T20:13:25.609Z,13.69
2023-09-15T20:15:56.097Z,13.64
2023-09-15T20:18:23.419Z,13.61
2023-09-15T20:20:53.848Z,13.65
2023-09-15T20:23:21.224Z,13.67
2023-09-15T20:25:49.234Z,13.76
2023-09-15T20:28:17.528Z,13.79
2023-09-15T20:30:44.815Z,13.74
2023-09-15T20:33:11.961Z,13.64
2023-09-15T20:35:44.749Z,13.60
2023-09-15T20:38:12.151Z,13.54
2023-09-15T20:40:39.742Z,13.53
2023-09-15T20:43:07.012Z,13.42
2023-09-15T20:45:34.729Z,13.37
2023-09-15T20:48:02.344Z,13.40
2023-09-15T20:50:30.174Z,13.37
2023-09-15T20:52:57.438Z,13.33
2023-09-15T20:55:25.266Z,13.31
2023-09-15T20:57:52.727Z,13.30
2023-09-15T21:00:19.942Z,13.30
2023-09-15T21:02:47.200Z,13.25
2023-09-15T21:05:15.772Z,13.26
2023-09-15T21:07:43.208Z,13.26
2023-09-15T21:10:10.310Z,13.30
2023-09-15T21:12:37.811Z,13.36
2023-09-15T21:15:05.511Z,13.30
2023-09-15T21:17:33.287Z,13.20
2023-09-15T21:20:00.344Z,13.13
2023-09-15T21:22:27.624Z,13.06
2023-09-15T21:24:54.709Z,13.06
2023-09-15T21:27:21.931Z,13.01
2023-09-15T21:29:49.038Z,12.97
2023-09-15T21:32:15.997Z,12.91
2023-09-15T21:34:43.065Z,12.86
2023-09-15T21:37:10.151Z,12.87
2023-09-15T21:39:37.293Z,12.83
2023-09-15T21:42:04.596Z,12.76
2023-09-15T21:44:32.888Z,12.67
2023-09-15T21:47:00.163Z,12.63
2023-09-15T21:49:27.135Z,12.72
2023-09-15T21:51:54.247Z,12.72
2023-09-15T21:54:21.485Z,12.72
2023-09-15T21:56:48.494Z,12.75
2023-09-15T21:59:15.521Z,12.76
2023-09-15T22:01:42.508Z,12.78
2023-09-15T22:04:11.719Z,12.76
2023-09-15T22:06:41.040Z,12.74
2023-09-15T22:09:08.712Z,12.74
2023-09-15T22:11:35.957Z,12.76
2023-09-15T22:14:03.267Z,12.81
2023-09-15T22:16:30.286Z,12.81
2023-09-15T22:18:57.507Z,12.81
2023-09-15T22:21:25.222Z,12.83
2023-09-15T22:23:53.217Z,12.85
2023-09-15T22:26:20.258Z,12.90
2023-09-15T22:28:47.443Z,12.90
2023-09-15T22:31:15.139Z,12.90
2023-09-15T22:33:43.269Z,12.90
2023-09-15T22:36:11.100Z,12.95
2023-09-15T22:38:38.183Z,12.96
2023-09-15T22:41:16.362Z,13.02
2023-09-15T22:43:44.651Z,13.04
2023-09-15T22:46:23.279Z,13.02
2023-09-15T22:48:52.183Z,13.03
2023-09-15T22:51:19.613Z,13.02
2023-09-15T22:53:47.822Z,13.07
2023-09-15T22:56:14.789Z,13.09
2023-09-15T22:58:41.873Z,13.10
2023-09-15T23:01:09.177Z,13.08
2023-09-15T23:03:36.344Z,13.03
2023-09-15T23:06:03.763Z,12.96
2023-09-15T23:08:31.047Z,13.00
2023-09-15T23:11:02.754Z,13.02
2023-09-15T23:13:29.901Z,13.08
2023-09-15T23:15:58.889Z,13.09
2023-09-15T23:18:26.487Z,13.06
2023-09-15T23:20:53.684Z,13.01
2023-09-15T23:23:24.976Z,13.01
2023-09-15T23:25:52.971Z,13.02
2023-09-15T23:28:19.942Z,13.01
2023-09-15T23:30:47.661Z,12.96
2023-09-15T23:33:14.888Z,12.88
2023-09-15T23:35:41.988Z,12.86
2023-09-15T23:38:08.973Z,12.87
2023-09-15T23:40:35.978Z,12.88
2023-09-15T23:43:03.300Z,12.90
2023-09-15T23:45:31.619Z,12.95
2023-09-15T23:47:58.805Z,13.01
2023-09-15T23:50:25.815Z,13.03
2023-09-15T23:52:52.923Z,13.01
2023-09-15T23:55:19.950Z,13.01
2023-09-15T23:57:49.649Z,13.02
